createdAt,value
2022-08-05T00:01:36.251Z,24.30
2022-08-05T00:04:19.527Z,24.30
2022-08-05T00:06:51.642Z,24.20
2022-08-05T00:09:20.324Z,24.20
2022-08-05T00:11:49.480Z,24.10
2022-08-05T00:14:29.290Z,24.10
2022-08-05T00:17:01.668Z,24.00
2022-08-05T00:19:33.789Z,24.00
2022-08-05T00:22:13.640Z,24.00
2022-08-05T00:24:46.060Z,24.00
2022-08-05T00:27:28.373Z,24.00
2022-08-05T00:30:11.337Z,24.00
2022-08-05T00:32:40.475Z,24.00
2022-08-05T00:35:09.681Z,24.00
2022-08-05T00:37:52.622Z,23.90
2022-08-05T00:40:26.653Z,24.00
2022-08-05T00:42:58.199Z,23.90
2022-08-05T00:45:38.563Z,23.90
2022-08-05T00:48:12.662Z,23.90
2022-08-05T00:50:44.337Z,23.90
2022-08-05T00:53:44.853Z,23.90
2022-08-05T01:00:28.691Z,24.00
2022-08-05T01:06:39.081Z,23.80
2022-08-05T01:09:43.810Z,23.80
2022-08-05T01:13:05.067Z,23.80
2022-08-05T01:15:57.005Z,23.70
2022-08-05T01:18:56.457Z,23.60
2022-08-05T01:21:55.874Z,23.50
2022-08-05T01:25:05.518Z,23.40
2022-08-05T01:28:42.620Z,23.40
2022-08-05T01:31:45.350Z,23.40
2022-08-05T01:34:30.919Z,23.40
2022-08-05T01:37:24.561Z,23.40
2022-08-05T01:40:07.022Z,23.40
2022-08-05T01:42:48.051Z,23.40
2022-08-05T01:45:34.844Z,23.30
2022-08-05T01:48:25.455Z,23.20
2022-08-05T01:51:11.918Z,23.20
2022-08-05T01:53:59.111Z,23.20
2022-08-05T01:58:11.541Z,23.20
2022-08-05T01:59:52.189Z,23.20
2022-08-05T02:02:28.349Z,23.10
2022-08-05T02:05:14.896Z,23.10
2022-08-05T02:07:47.306Z,23.10
2022-08-05T02:10:37.659Z,23.10
2022-08-05T02:13:16.233Z,23.10
2022-08-05T02:15:48.342Z,23.00
2022-08-05T02:18:31.406Z,23.00
2022-08-05T02:21:14.938Z,23.00
2022-08-05T02:23:45.946Z,23.00
2022-08-05T02:26:19.720Z,23.00
2022-08-05T02:28:51.035Z,22.90
2022-08-05T02:31:24.496Z,22.90
2022-08-05T02:34:00.716Z,22.80
2022-08-05T02:36:31.854Z,22.70
2022-08-05T02:39:02.825Z,22.70
2022-08-05T02:41:43.430Z,22.60
2022-08-05T02:44:25.066Z,22.50
2022-08-05T02:47:00.300Z,22.50
2022-08-05T02:49:35.778Z,22.50
2022-08-05T02:52:13.591Z,22.50
2022-08-05T02:54:57.876Z,22.50
2022-08-05T02:58:10.337Z,22.50
2022-08-05T03:00:18.671Z,22.40
2022-08-05T03:02:49.248Z,22.40
2022-08-05T03:05:21.915Z,22.40
2022-08-05T03:08:10.834Z,22.40
2022-08-05T03:10:44.088Z,22.40
2022-08-05T03:13:52.019Z,22.50
2022-08-05T03:16:20.950Z,22.60
2022-08-05T03:18:49.477Z,22.60
2022-08-05T03:21:19.038Z,22.60
2022-08-05T03:23:50.016Z,22.60
2022-08-05T03:26:31.756Z,22.60
2022-08-05T03:29:00.807Z,22.90
2022-08-05T03:31:56.900Z,23.30
2022-08-05T03:34:19.077Z,23.40
2022-08-05T03:36:48.589Z,23.50
2022-08-05T03:39:27.036Z,23.50
2022-08-05T03:41:58.710Z,23.40
2022-08-05T03:44:29.053Z,23.40
2022-08-05T03:46:57.415Z,23.30
2022-08-05T03:49:31.167Z,23.30
2022-08-05T03:52:38.146Z,23.30
2022-08-05T03:56:10.053Z,23.30
2022-08-05T03:58:06.330Z,23.30
2022-08-05T04:00:34.692Z,23.30
2022-08-05T04:03:07.116Z,23.30
2022-08-05T04:05:45.473Z,23.40
2022-08-05T04:08:30.089Z,23.40
2022-08-05T04:11:07.428Z,23.40
2022-08-05T04:13:50.507Z,23.50
2022-08-05T04:16:25.346Z,23.60
2022-08-05T04:19:00.471Z,23.80
2022-08-05T04:22:09.577Z,24.00
2022-08-05T04:24:19.645Z,24.50
2022-08-05T04:26:50.781Z,25.10
2022-08-05T04:29:19.896Z,25.70
2022-08-05T04:31:48.322Z,25.90
2022-08-05T04:34:19.379Z,26.00
2022-08-05T04:37:01.499Z,25.80
2022-08-05T04:39:35.277Z,26.10
2022-08-05T04:42:03.974Z,26.30
2022-08-05T04:44:32.061Z,26.70
2022-08-05T04:47:20.116Z,27.30
2022-08-05T04:50:01.354Z,27.50
2022-08-05T04:52:32.662Z,27.80
2022-08-05T04:55:14.940Z,27.70
2022-08-05T04:57:51.532Z,27.00
2022-08-05T05:00:23.629Z,26.50
2022-08-05T05:02:54.298Z,26.10
2022-08-05T05:05:28.619Z,25.80
2022-08-05T05:08:01.620Z,25.60
2022-08-05T05:10:33.082Z,25.40
2022-08-05T05:13:01.712Z,25.20
2022-08-05T05:15:56.351Z,25.20
2022-08-05T05:18:31.214Z,25.20
2022-08-05T05:21:03.466Z,25.20
2022-08-05T05:24:01.863Z,25.20
2022-08-05T05:26:28.407Z,25.00
2022-08-05T05:29:01.105Z,25.00
2022-08-05T05:34:01.871Z,24.90
2022-08-05T05:36:31.707Z,24.80
2022-08-05T05:39:03.822Z,24.70
2022-08-05T05:41:40.841Z,24.70
2022-08-05T05:44:36.923Z,24.60
2022-08-05T05:47:04.621Z,24.60
2022-08-05T05:49:47.547Z,24.60
2022-08-05T05:52:28.627Z,24.70
2022-08-05T05:55:00.998Z,24.70
2022-08-05T05:57:42.606Z,24.90
2022-08-05T06:00:14.053Z,25.00
2022-08-05T06:02:42.910Z,25.30
2022-08-05T06:05:16.874Z,25.50
2022-08-05T06:08:01.245Z,25.80
2022-08-05T06:10:36.482Z,26.10
2022-08-05T06:13:06.987Z,26.20
2022-08-05T06:16:31.354Z,26.20
2022-08-05T06:18:31.638Z,26.40
2022-08-05T06:21:00.468Z,26.40
2022-08-05T06:23:43.836Z,26.10
2022-08-05T06:26:21.653Z,25.70
2022-08-05T06:28:54.405Z,25.40
2022-08-05T06:31:22.666Z,25.20
2022-08-05T06:34:07.590Z,25.00
2022-08-05T06:36:57.050Z,25.10
2022-08-05T06:39:27.003Z,25.40
2022-08-05T06:41:56.369Z,25.40
2022-08-05T06:44:28.397Z,25.30
2022-08-05T06:46:57.515Z,25.40
2022-08-05T06:50:00.759Z,25.40
2022-08-05T06:52:37.883Z,25.00
2022-08-05T06:55:02.813Z,24.60
2022-08-05T06:58:02.630Z,24.40
2022-08-05T07:00:25.750Z,24.20
2022-08-05T07:02:54.530Z,24.30
2022-08-05T07:05:31.922Z,24.30
2022-08-05T07:08:10.606Z,24.30
2022-08-05T07:10:52.879Z,24.50
2022-08-05T07:13:57.913Z,24.70
2022-08-05T07:18:00.160Z,25.00
2022-08-05T07:20:31.603Z,25.00
2022-08-05T07:22:35.215Z,25.10
2022-08-05T07:25:23.119Z,25.40
2022-08-05T07:27:58.445Z,25.60
2022-08-05T07:30:33.324Z,25.60
2022-08-05T07:33:09.381Z,25.70
2022-08-05T07:36:03.088Z,26.00
2022-08-05T07:38:33.210Z,26.00
2022-08-05T07:42:06.798Z,26.40
2022-08-05T07:43:52.712Z,26.40
2022-08-05T07:46:28.130Z,26.80
2022-08-05T07:49:01.711Z,27.10
2022-08-05T07:51:37.252Z,27.00
2022-08-05T07:54:11.530Z,27.10
2022-08-05T07:57:01.827Z,27.30
2022-08-05T07:59:30.988Z,27.40
2022-08-05T08:02:15.502Z,27.50
2022-08-05T08:04:48.287Z,27.50
2022-08-05T08:07:17.908Z,27.70
2022-08-05T08:09:46.491Z,28.00
2022-08-05T08:12:36.994Z,28.40
2022-08-05T08:15:14.292Z,28.20
2022-08-05T08:17:50.679Z,28.30
2022-08-05T08:21:00.345Z,28.30
2022-08-05T08:24:01.931Z,28.00
2022-08-05T08:26:02.650Z,27.50
2022-08-05T08:28:55.178Z,27.60
2022-08-05T08:31:23.963Z,27.60
2022-08-05T08:33:55.047Z,27.30
2022-08-05T08:36:38.640Z,27.40
2022-08-05T08:39:15.679Z,27.50
2022-08-05T08:41:51.648Z,27.70
2022-08-05T08:45:18.819Z,27.70
2022-08-05T08:48:06.404Z,28.00
2022-08-05T08:50:31.603Z,28.10
2022-08-05T08:53:07.973Z,28.10
2022-08-05T08:56:04.591Z,28.10
2022-08-05T08:58:37.015Z,28.00
2022-08-05T09:01:08.668Z,28.00
2022-08-05T09:03:45.653Z,28.50
2022-08-05T09:06:17.178Z,29.00
2022-08-05T09:08:49.760Z,29.80
2022-08-05T09:11:17.897Z,30.30
2022-08-05T09:14:54.131Z,30.20
2022-08-05T09:16:55.018Z,30.00
2022-08-05T09:19:27.655Z,29.20
2022-08-05T09:22:23.144Z,29.10
2022-08-05T09:25:02.017Z,29.20
2022-08-05T09:28:04.600Z,29.40
2022-08-05T09:30:30.342Z,28.90
2022-08-05T09:33:04.732Z,29.00
2022-08-05T09:35:33.133Z,29.40
2022-08-05T09:38:12.984Z,29.60
2022-08-05T09:40:52.122Z,29.60
2022-08-05T09:43:41.633Z,29.50
2022-08-05T09:46:27.613Z,29.50
2022-08-05T09:49:06.816Z,29.60
2022-08-05T09:51:38.543Z,29.80
2022-08-05T09:54:10.168Z,29.80
2022-08-05T09:56:40.829Z,29.80
2022-08-05T09:59:19.750Z,29.80
2022-08-05T10:01:48.342Z,29.70
2022-08-05T10:04:38.238Z,29.80
2022-08-05T10:07:20.405Z,29.80
2022-08-05T10:10:14.079Z,29.80
2022-08-05T10:12:50.471Z,29.80
2022-08-05T10:15:23.997Z,29.90
2022-08-05T10:18:12.460Z,30.00
2022-08-05T10:20:44.189Z,30.00
2022-08-05T10:23:33.961Z,30.00
2022-08-05T10:26:52.316Z,30.10
2022-08-05T10:28:58.502Z,30.50
2022-08-05T10:32:54.069Z,30.60
2022-08-05T10:34:17.008Z,30.60
2022-08-05T10:36:45.772Z,30.60
2022-08-05T10:39:24.782Z,30.90
2022-08-05T10:42:14.508Z,31.00
2022-08-05T10:44:50.314Z,30.70
2022-08-05T10:47:26.921Z,30.80
2022-08-05T10:50:32.088Z,30.70
2022-08-05T10:52:58.633Z,30.70
2022-08-05T10:55:32.883Z,31.00
2022-08-05T10:58:20.610Z,31.30
2022-08-05T11:00:55.406Z,31.50
2022-08-05T11:03:31.314Z,31.80
2022-08-05T11:06:15.692Z,31.80
2022-08-05T11:09:13.111Z,31.70
2022-08-05T11:11:53.478Z,31.90
2022-08-05T11:14:56.261Z,32.20
2022-08-05T11:17:59.923Z,32.50
2022-08-05T11:20:44.589Z,32.20
2022-08-05T11:24:04.618Z,32.40
2022-08-05T11:26:33.530Z,32.50
2022-08-05T11:29:12.700Z,32.60
2022-08-05T11:31:58.419Z,32.20
2022-08-05T11:34:50.832Z,32.00
2022-08-05T11:38:28.420Z,32.20
2022-08-05T11:41:03.372Z,32.20
2022-08-05T11:44:06.062Z,32.40
2022-08-05T11:46:35.517Z,32.00
2022-08-05T11:49:05.279Z,31.80
2022-08-05T11:51:44.015Z,31.80
2022-08-05T11:54:34.020Z,32.10
2022-08-05T11:57:08.142Z,32.30
2022-08-05T11:59:52.979Z,32.40
2022-08-05T12:02:31.275Z,32.60
2022-08-05T12:05:07.540Z,32.70
2022-08-05T12:08:07.567Z,32.50
2022-08-05T12:10:46.005Z,32.60
2022-08-05T12:13:27.888Z,33.20
2022-08-05T12:16:14.634Z,33.10
2022-08-05T12:18:49.578Z,32.70
2022-08-05T12:21:24.015Z,33.00
2022-08-05T12:24:05.144Z,32.80
2022-08-05T12:26:35.423Z,33.10
2022-08-05T12:29:05.489Z,33.00
2022-08-05T12:31:42.371Z,32.70
2022-08-05T12:34:21.290Z,32.50
2022-08-05T12:36:52.294Z,32.50
2022-08-05T12:39:23.751Z,32.60
2022-08-05T12:42:03.467Z,32.40
2022-08-05T12:44:34.100Z,32.50
2022-08-05T12:47:03.572Z,32.70
2022-08-05T12:50:04.097Z,32.90
2022-08-05T12:52:41.923Z,32.80
2022-08-05T12:55:26.794Z,32.80
2022-08-05T12:58:48.356Z,32.20
2022-08-05T13:02:01.594Z,31.90
2022-08-05T13:03:43.108Z,32.00
2022-08-05T13:06:16.608Z,32.20
2022-08-05T13:08:51.427Z,32.20
2022-08-05T13:12:01.018Z,32.20
2022-08-05T13:14:14.874Z,32.30
2022-08-05T13:16:51.758Z,32.30
2022-08-05T13:19:22.772Z,32.50
2022-08-05T13:21:56.761Z,32.50
2022-08-05T13:24:36.330Z,32.60
2022-08-05T13:27:38.213Z,32.70
2022-08-05T13:30:33.920Z,32.20
2022-08-05T13:33:00.952Z,32.20
2022-08-05T13:35:31.238Z,32.40
2022-08-05T13:38:20.490Z,32.70
2022-08-05T13:41:00.074Z,32.80
2022-08-05T13:43:44.822Z,32.90
2022-08-05T13:46:35.709Z,32.90
2022-08-05T13:49:10.321Z,32.90
2022-08-05T13:51:41.474Z,32.90
2022-08-05T13:54:21.040Z,32.90
2022-08-05T13:56:53.558Z,33.10
2022-08-05T13:59:27.547Z,32.90
2022-08-05T14:02:00.879Z,33.10
2022-08-05T14:04:51.561Z,33.10
2022-08-05T14:07:25.802Z,33.20
2022-08-05T14:10:12.577Z,33.00
2022-08-05T14:12:48.595Z,33.10
2022-08-05T14:16:08.067Z,32.90
2022-08-05T14:18:17.350Z,32.90
2022-08-05T14:20:48.117Z,32.70
2022-08-05T14:23:25.306Z,32.50
2022-08-05T14:25:58.100Z,32.70
2022-08-05T14:28:28.198Z,33.00
2022-08-05T14:30:58.334Z,32.80
2022-08-05T14:33:56.507Z,32.70
2022-08-05T14:36:21.387Z,32.60
2022-08-05T14:38:50.277Z,32.50
2022-08-05T14:41:18.912Z,32.40
2022-08-05T14:44:02.503Z,32.20
2022-08-05T14:46:35.518Z,32.20
2022-08-05T14:49:07.559Z,32.30
2022-08-05T14:51:37.783Z,32.10
2022-08-05T14:54:28.002Z,32.10
2022-08-05T14:56:55.010Z,32.10
2022-08-05T14:59:23.272Z,32.00
2022-08-05T15:01:53.789Z,32.10
2022-08-05T15:04:22.774Z,32.10
2022-08-05T15:06:51.767Z,32.00
2022-08-05T15:09:52.725Z,31.90
2022-08-05T15:12:16.396Z,32.00
2022-08-05T15:14:49.889Z,32.20
2022-08-05T15:17:47.439Z,32.20
2022-08-05T15:20:18.436Z,32.30
2022-08-05T15:22:54.249Z,32.30
2022-08-05T15:25:51.441Z,32.10
2022-08-05T15:28:16.238Z,32.30
2022-08-05T15:30:45.803Z,32.30
2022-08-05T15:33:56.719Z,32.10
2022-08-05T15:36:05.207Z,32.10
2022-08-05T15:38:40.975Z,32.10
2022-08-05T15:41:21.875Z,32.00
2022-08-05T15:43:54.812Z,31.90
2022-08-05T15:46:25.010Z,31.80
2022-08-05T15:49:00.748Z,31.70
2022-08-05T15:52:09.933Z,31.60
2022-08-05T15:54:35.072Z,31.60
2022-08-05T15:57:07.587Z,31.30
2022-08-05T15:59:44.438Z,31.10
2022-08-05T16:02:14.897Z,31.20
2022-08-05T16:04:49.891Z,31.20
2022-08-05T16:07:18.176Z,31.30
2022-08-05T16:09:46.222Z,31.20
2022-08-05T16:12:14.316Z,31.00
2022-08-05T16:14:43.446Z,31.00
2022-08-05T16:17:14.251Z,30.90
2022-08-05T16:20:11.046Z,30.80
2022-08-05T16:22:34.102Z,30.60
2022-08-05T16:25:07.873Z,30.20
2022-08-05T16:27:47.353Z,30.10
2022-08-05T16:30:29.150Z,30.10
2022-08-05T16:33:00.614Z,30.20
2022-08-05T16:35:30.819Z,30.40
2022-08-05T16:38:15.487Z,30.40
2022-08-05T16:40:55.303Z,30.30
2022-08-05T16:43:28.976Z,30.10
2022-08-05T16:46:04.377Z,30.00
2022-08-05T16:48:38.530Z,30.00
2022-08-05T16:51:10.834Z,29.90
2022-08-05T16:54:06.229Z,29.80
2022-08-05T16:56:34.595Z,29.60
2022-08-05T16:59:07.721Z,29.40
2022-08-05T17:01:53.862Z,29.30
2022-08-05T17:04:26.345Z,29.20
2022-08-05T17:06:55.597Z,29.10
2022-08-05T17:09:26.464Z,28.90
2022-08-05T17:11:59.747Z,28.80
2022-08-05T17:14:36.901Z,28.70
2022-08-05T17:17:14.992Z,28.60
2022-08-05T17:19:46.166Z,28.40
2022-08-05T17:22:24.446Z,28.40
2022-08-05T17:24:57.981Z,28.40
2022-08-05T17:27:33.801Z,28.30
2022-08-05T17:30:03.183Z,28.30
2022-08-05T17:32:32.163Z,28.20
2022-08-05T17:35:02.871Z,28.20
2022-08-05T17:37:40.388Z,28.10
2022-08-05T17:40:15.133Z,28.10
2022-08-05T17:42:50.768Z,27.90
2022-08-05T17:45:21.774Z,27.80
2022-08-05T17:47:56.028Z,27.80
2022-08-05T17:50:28.910Z,27.70
2022-08-05T17:52:59.943Z,27.70
2022-08-05T17:55:37.199Z,27.70
2022-08-05T17:58:12.469Z,27.70
2022-08-05T18:00:44.981Z,27.70
2022-08-05T18:06:09.964Z,27.70
2022-08-05T18:08:44.216Z,27.60
2022-08-05T18:11:23.794Z,27.60
2022-08-05T18:14:03.481Z,27.50
2022-08-05T18:16:32.788Z,27.50
2022-08-05T18:19:00.831Z,27.40
2022-08-05T18:22:08.474Z,27.40
2022-08-05T18:24:17.392Z,27.30
2022-08-05T18:26:47.198Z,27.20
2022-08-05T18:29:16.868Z,27.10
2022-08-05T18:31:45.121Z,27.10
2022-08-05T18:34:14.190Z,27.00
2022-08-05T18:36:43.671Z,26.90
2022-08-05T18:39:41.962Z,26.80
2022-08-05T18:42:04.998Z,26.70
2022-08-05T18:44:51.668Z,26.60
2022-08-05T18:47:26.867Z,26.50
2022-08-05T18:50:15.585Z,26.50
2022-08-05T18:52:51.029Z,26.40
2022-08-05T18:55:21.467Z,26.30
2022-08-05T18:57:54.122Z,26.30
2022-08-05T19:00:31.286Z,26.30
2022-08-05T19:03:03.405Z,26.30
2022-08-05T19:06:12.843Z,26.20
2022-08-05T19:08:21.755Z,26.10
2022-08-05T19:10:52.089Z,26.00
2022-08-05T19:13:25.861Z,26.00
2022-08-05T19:16:03.563Z,26.00
2022-08-05T19:18:32.919Z,26.00
2022-08-05T19:21:01.489Z,25.90
2022-08-05T19:24:05.722Z,25.90
2022-08-05T19:26:22.391Z,25.90
2022-08-05T19:28:51.860Z,25.80
2022-08-05T19:31:22.945Z,25.70
2022-08-05T19:33:56.939Z,25.50
2022-08-05T19:36:26.079Z,25.40
2022-08-05T19:39:01.027Z,25.30
2022-08-05T19:41:58.434Z,25.30
2022-08-05T19:44:19.923Z,25.20
2022-08-05T19:46:50.182Z,25.10
2022-08-05T19:49:18.617Z,25.00
2022-08-05T19:52:04.525Z,25.00
2022-08-05T19:54:35.569Z,24.90
2022-08-05T19:57:06.813Z,24.80
2022-08-05T19:59:59.520Z,24.70
2022-08-05T20:02:32.146Z,24.60
2022-08-05T20:05:04.648Z,24.40
2022-08-05T20:07:46.514Z,24.40
2022-08-05T20:10:16.754Z,24.30
2022-08-05T20:12:47.983Z,24.10
2022-08-05T20:15:47.843Z,23.90
2022-08-05T20:18:09.701Z,23.90
2022-08-05T20:20:39.411Z,23.60
2022-08-05T20:23:10.043Z,23.40
2022-08-05T20:25:41.873Z,23.00
2022-08-05T20:28:13.771Z,22.70
2022-08-05T20:30:44.207Z,22.20
2022-08-05T20:33:13.125Z,22.00
2022-08-05T20:35:45.315Z,22.00
2022-08-05T20:38:20.253Z,22.00
2022-08-05T20:40:56.390Z,22.10
2022-08-05T20:43:58.485Z,22.20
2022-08-05T20:46:31.305Z,22.10
2022-08-05T20:49:02.477Z,21.90
2022-08-05T20:51:34.299Z,21.80
2022-08-05T20:54:02.602Z,21.80
2022-08-05T20:56:34.257Z,21.70
2022-08-05T20:59:14.210Z,21.60
2022-08-05T21:01:51.653Z,21.70
2022-08-05T21:04:19.908Z,21.60
2022-08-05T21:06:48.524Z,21.50
2022-08-05T21:09:18.938Z,21.50
2022-08-05T21:12:10.654Z,19.80
2022-08-05T21:14:35.844Z,18.50
2022-08-05T21:17:06.533Z,18.20
2022-08-05T21:19:47.502Z,17.90
2022-08-05T21:22:18.328Z,17.90
2022-08-05T21:24:57.676Z,17.90
2022-08-05T21:27:27.454Z,18.10
2022-08-05T21:29:56.434Z,18.20
2022-08-05T21:32:27.553Z,18.30
2022-08-05T21:35:17.676Z,18.30
2022-08-05T21:37:47.228Z,18.20
2022-08-05T21:40:21.109Z,18.20
2022-08-05T21:42:51.662Z,18.20
2022-08-05T21:45:24.952Z,18.20
2022-08-05T21:48:10.458Z,18.20
2022-08-05T21:50:41.731Z,18.20
2022-08-05T21:53:27.538Z,18.20
2022-08-05T21:56:05.585Z,18.10
2022-08-05T21:58:42.054Z,18.20
2022-08-05T22:01:11.091Z,18.00
2022-08-05T22:03:53.857Z,18.00
2022-08-05T22:06:35.159Z,17.90
2022-08-05T22:09:13.369Z,17.90
2022-08-05T22:11:47.129Z,17.90
2022-08-05T22:14:32.931Z,18.00
2022-08-05T22:17:03.453Z,18.00
2022-08-05T22:19:57.413Z,17.90
2022-08-05T22:22:28.854Z,17.90
2022-08-05T22:25:23.950Z,17.80
2022-08-05T22:28:11.185Z,17.90
2022-08-05T22:30:56.556Z,17.80
2022-08-05T22:33:58.464Z,17.70
2022-08-05T22:36:16.919Z,17.80
2022-08-05T22:38:51.744Z,17.70
2022-08-05T22:41:26.353Z,17.90
2022-08-05T22:44:11.831Z,17.90
2022-08-05T22:46:41.507Z,17.80
2022-08-05T22:49:23.530Z,17.70
2022-08-05T22:52:05.842Z,17.60
2022-08-05T22:54:36.499Z,17.70
2022-08-05T22:57:05.676Z,17.80
2022-08-05T22:59:43.734Z,17.80
2022-08-05T23:02:29.033Z,18.00
2022-08-05T23:05:05.125Z,18.00
2022-08-05T23:07:49.479Z,18.10
2022-08-05T23:10:27.973Z,18.00
2022-08-05T23:13:12.677Z,17.60
2022-08-05T23:15:52.913Z,17.50
2022-08-05T23:18:22.898Z,17.50
2022-08-05T23:20:51.175Z,17.60
2022-08-05T23:23:21.525Z,17.70
2022-08-05T23:25:55.185Z,17.50
2022-08-05T23:28:27.703Z,17.50
2022-08-05T23:31:06.967Z,17.60
2022-08-05T23:34:03.880Z,17.50
2022-08-05T23:36:38.713Z,17.50
2022-08-05T23:39:17.174Z,17.50
2022-08-05T23:45:27.552Z,17.40
2022-08-05T23:48:04.448Z,17.40
2022-08-05T23:50:32.670Z,17.50
2022-08-05T23:53:00.766Z,17.50
2022-08-05T23:55:31.235Z,17.40
2022-08-05T23:57:59.599Z,17.30
